createdAt,value
2018-08-04T00:00:12.131Z,89.00
2018-08-04T00:02:42.096Z,87.26
2018-08-04T00:05:12.080Z,87.40
2018-08-04T00:07:42.076Z,89.15
2018-08-04T00:10:17.548Z,87.92
2018-08-04T00:12:50.027Z,89.61
2018-08-04T00:15:20.789Z,89.63
2018-08-04T00:17:50.770Z,89.61
2018-08-04T00:20:21.138Z,88.72
2018-08-04T00:22:51.356Z,85.12
2018-08-04T00:25:22.099Z,80.75
2018-08-04T00:27:52.092Z,81.81
2018-08-04T00:30:22.192Z,79.83
2018-08-04T00:32:52.079Z,78.71
2018-08-04T00:35:22.332Z,80.13
2018-08-04T00:37:52.732Z,79.44
2018-08-04T00:40:22.980Z,78.15
2018-08-04T00:42:52.910Z,80.60
2018-08-04T00:45:22.939Z,81.56
2018-08-04T00:47:53.087Z,81.09
2018-08-04T00:50:23.048Z,80.74
2018-08-04T00:52:52.923Z,82.13
2018-08-04T00:55:23.077Z,79.27
2018-08-04T00:57:53.084Z,80.50
2018-08-04T01:00:22.967Z,83.50
2018-08-04T01:02:52.837Z,82.66
2018-08-04T01:05:22.663Z,84.40
2018-08-04T01:07:53.156Z,85.68
2018-08-04T01:10:23.120Z,89.88
2018-08-04T01:12:53.327Z,89.16
2018-08-04T01:15:23.444Z,90.51
2018-08-04T01:17:53.325Z,90.82
2018-08-04T01:20:23.368Z,92.09
2018-08-04T01:22:53.277Z,92.76
2018-08-04T01:25:23.223Z,92.59
2018-08-04T01:27:53.612Z,90.21
2018-08-04T01:30:23.612Z,88.16
2018-08-04T01:32:53.576Z,85.51
2018-08-04T01:35:23.896Z,83.88
2018-08-04T01:37:53.900Z,84.06
2018-08-04T01:40:23.831Z,84.52
2018-08-04T01:42:54.200Z,84.18
2018-08-04T01:45:24.036Z,86.60
2018-08-04T01:47:54.198Z,87.01
2018-08-04T01:50:23.967Z,86.35
2018-08-04T01:52:53.816Z,88.88
2018-08-04T01:55:23.967Z,89.12
2018-08-04T01:57:54.032Z,93.01
2018-08-04T02:00:24.061Z,93.69
2018-08-04T02:02:53.915Z,95.69
2018-08-04T02:05:24.100Z,96.55
2018-08-04T02:07:54.488Z,98.22
2018-08-04T02:10:24.473Z,97.64
2018-08-04T02:12:54.403Z,98.64
2018-08-04T02:15:24.716Z,98.92
2018-08-04T02:17:54.923Z,99.46
2018-08-04T02:20:24.809Z,100.00
2018-08-04T02:22:54.804Z,100.00
2018-08-04T02:25:25.060Z,100.00
2018-08-04T02:27:55.295Z,100.00
2018-08-04T02:30:25.212Z,100.00
2018-08-04T02:32:55.296Z,100.00
2018-08-04T02:35:25.693Z,100.00
2018-08-04T02:37:55.674Z,100.00
2018-08-04T02:40:25.816Z,100.00
2018-08-04T02:42:55.824Z,100.00
2018-08-04T02:45:26.024Z,100.00
2018-08-04T02:47:55.919Z,100.00
2018-08-04T02:50:25.748Z,100.00
2018-08-04T02:52:55.539Z,100.00
2018-08-04T02:55:25.557Z,100.00
2018-08-04T02:57:55.699Z,100.00
2018-08-04T03:00:25.580Z,100.00
2018-08-04T03:02:55.584Z,100.00
2018-08-04T03:05:25.948Z,100.00
2018-08-04T03:07:55.789Z,100.00
2018-08-04T03:10:26.209Z,100.00
2018-08-04T03:12:56.212Z,100.00
2018-08-04T03:15:26.232Z,100.00
2018-08-04T03:17:56.264Z,100.00
2018-08-04T03:20:26.261Z,100.00
2018-08-04T03:22:56.169Z,100.00
2018-08-04T03:25:26.181Z,100.00
2018-08-04T03:27:56.115Z,100.00
2018-08-04T03:30:26.190Z,100.00
2018-08-04T03:32:56.174Z,100.00
2018-08-04T03:35:26.228Z,100.00
2018-08-04T03:37:56.116Z,100.00
2018-08-04T03:40:26.000Z,100.00
2018-08-04T03:42:56.444Z,100.00
2018-08-04T03:45:26.339Z,100.00
2018-08-04T03:47:56.707Z,100.00
2018-08-04T03:50:26.752Z,100.00
2018-08-04T03:52:56.630Z,100.00
2018-08-04T03:55:26.650Z,100.00
2018-08-04T03:57:56.832Z,97.17
2018-08-04T04:00:26.666Z,98.42
2018-08-04T04:02:56.837Z,96.84
2018-08-04T04:05:26.737Z,95.96
2018-08-04T04:07:56.680Z,95.21
2018-08-04T04:10:26.668Z,94.37
2018-08-04T04:12:56.836Z,93.37
2018-08-04T04:15:27.070Z,93.40
2018-08-04T04:17:57.530Z,92.17
2018-08-04T04:20:27.683Z,88.63
2018-08-04T04:22:58.271Z,90.20
2018-08-04T04:25:28.465Z,89.52
2018-08-04T04:27:58.325Z,88.81
2018-08-04T04:30:28.732Z,88.29
2018-08-04T04:32:58.737Z,87.72
2018-08-04T04:35:29.419Z,86.97
2018-08-04T04:37:59.412Z,87.51
2018-08-04T04:40:29.437Z,86.29
2018-08-04T04:42:59.282Z,85.03
2018-08-04T04:45:29.527Z,84.63
2018-08-04T04:47:59.543Z,84.13
2018-08-04T04:50:29.752Z,85.05
2018-08-04T04:52:59.961Z,83.92
2018-08-04T04:55:30.289Z,83.83
2018-08-04T04:58:00.368Z,82.80
2018-08-04T05:00:30.864Z,82.05
2018-08-04T05:03:00.984Z,82.31
2018-08-04T05:05:30.884Z,81.20
2018-08-04T05:08:01.380Z,80.36
2018-08-04T05:10:31.314Z,81.26
2018-08-04T05:13:01.574Z,80.93
2018-08-04T05:15:31.737Z,80.09
2018-08-04T05:18:02.068Z,78.92
2018-08-04T05:20:32.568Z,78.93
2018-08-04T05:23:02.505Z,77.77
2018-08-04T05:25:32.504Z,78.10
2018-08-04T05:28:02.320Z,79.83
2018-08-04T05:30:32.359Z,80.78
2018-08-04T05:33:02.336Z,81.98
2018-08-04T05:35:32.197Z,78.57
2018-08-04T05:38:02.099Z,77.94
2018-08-04T05:40:32.452Z,78.60
2018-08-04T05:43:03.473Z,76.29
2018-08-04T05:45:33.535Z,75.84
2018-08-04T05:48:03.558Z,75.60
2018-08-04T05:50:33.380Z,76.42
2018-08-04T05:53:03.524Z,75.86
2018-08-04T05:55:33.554Z,74.70
2018-08-04T05:58:03.607Z,72.13
2018-08-04T06:00:33.479Z,71.69
2018-08-04T06:03:03.388Z,72.48
2018-08-04T06:05:34.229Z,71.77
2018-08-04T06:08:04.359Z,72.61
2018-08-04T06:10:34.506Z,71.45
2018-08-04T06:13:04.516Z,70.44
2018-08-04T06:15:34.619Z,69.18
2018-08-04T06:18:04.505Z,69.54
2018-08-04T06:20:34.607Z,69.01
2018-08-04T06:23:04.853Z,69.01
2018-08-04T06:25:35.048Z,68.50
2018-08-04T06:28:05.179Z,67.57
2018-08-04T06:30:35.403Z,64.79
2018-08-04T06:33:05.413Z,64.42
2018-08-04T06:35:35.307Z,64.37
2018-08-04T06:38:05.453Z,64.18
2018-08-04T06:40:35.875Z,64.44
2018-08-04T06:43:05.881Z,64.81
2018-08-04T06:45:36.218Z,63.66
2018-08-04T06:48:06.432Z,63.49
2018-08-04T06:50:36.462Z,63.67
2018-08-04T06:53:06.452Z,62.81
2018-08-04T06:55:36.906Z,61.51
2018-08-04T06:58:06.912Z,61.61
2018-08-04T07:00:37.159Z,60.86
2018-08-04T07:03:07.821Z,54.13
2018-08-04T07:05:38.077Z,58.13
2018-08-04T07:08:08.016Z,60.50
2018-08-04T07:10:37.863Z,55.77
2018-08-04T07:13:08.256Z,51.25
2018-08-04T07:15:38.118Z,52.33
2018-08-04T07:18:08.124Z,52.21
2018-08-04T07:20:38.276Z,52.75
2018-08-04T07:23:08.509Z,51.23
2018-08-04T07:25:38.396Z,50.93
2018-08-04T07:28:08.953Z,51.98
2018-08-04T07:30:39.280Z,49.44
2018-08-04T07:33:09.419Z,51.12
2018-08-04T07:35:39.905Z,49.21
2018-08-04T07:38:10.191Z,50.16
2018-08-04T07:40:40.049Z,51.44
2018-08-04T07:43:10.396Z,49.54
2018-08-04T07:45:40.461Z,50.72
2018-08-04T07:48:10.565Z,48.12
2018-08-04T07:50:40.599Z,48.71
2018-08-04T07:53:10.585Z,47.86
2018-08-04T07:55:40.949Z,48.66
2018-08-04T07:58:11.457Z,48.21
2018-08-04T08:00:41.630Z,48.17
2018-08-04T08:03:11.851Z,46.70
2018-08-04T08:05:42.150Z,48.04
2018-08-04T08:08:12.293Z,47.67
2018-08-04T08:10:42.454Z,46.53
2018-08-04T08:13:12.776Z,47.64
2018-08-04T08:15:43.416Z,48.61
2018-08-04T08:18:13.224Z,47.25
2018-08-04T08:20:43.102Z,46.35
2018-08-04T08:23:13.054Z,47.42
2018-08-04T08:25:52.472Z,46.71
2018-08-04T08:28:22.277Z,47.59
2018-08-04T08:30:52.444Z,46.70
2018-08-04T08:33:22.652Z,48.76
2018-08-04T08:35:52.593Z,44.01
2018-08-04T08:38:22.608Z,45.58
2018-08-04T08:40:52.788Z,46.78
2018-08-04T08:43:22.758Z,47.79
2018-08-04T08:45:52.583Z,45.58
2018-08-04T08:48:22.519Z,46.71
2018-08-04T08:50:52.427Z,49.62
2018-08-04T08:53:22.622Z,50.74
2018-08-04T08:55:52.988Z,48.35
2018-08-04T08:58:22.989Z,49.62
2018-08-04T09:00:52.863Z,48.78
2018-08-04T09:03:22.688Z,51.81
2018-08-04T09:05:52.772Z,52.63
2018-08-04T09:08:22.528Z,53.14
2018-08-04T09:10:52.845Z,52.37
2018-08-04T09:13:22.720Z,47.82
2018-08-04T09:15:53.044Z,47.00
2018-08-04T09:18:23.072Z,45.78
2018-08-04T09:20:53.069Z,46.51
2018-08-04T09:23:22.940Z,46.14
2018-08-04T09:25:53.302Z,45.55
2018-08-04T09:28:23.341Z,45.16
2018-08-04T09:30:53.841Z,45.65
2018-08-04T09:33:23.796Z,45.29
2018-08-04T09:35:54.167Z,44.38
2018-08-04T09:38:24.059Z,45.80
2018-08-04T09:40:54.023Z,45.33
2018-08-04T09:43:23.900Z,44.46
2018-08-04T09:45:53.959Z,46.33
2018-08-04T09:48:23.914Z,46.84
2018-08-04T09:50:53.937Z,45.69
2018-08-04T09:53:24.097Z,45.77
2018-08-04T09:55:53.977Z,45.48
2018-08-04T09:58:23.977Z,46.25
2018-08-04T10:00:59.098Z,45.93
2018-08-04T10:03:29.099Z,45.71
2018-08-04T10:05:59.488Z,47.16
2018-08-04T10:08:29.359Z,47.43
2018-08-04T10:10:59.360Z,47.79
2018-08-04T10:13:29.331Z,50.20
2018-08-04T10:15:59.250Z,50.70
2018-08-04T10:18:29.079Z,50.42
2018-08-04T10:20:58.923Z,50.94
2018-08-04T10:23:28.805Z,50.24
2018-08-04T10:25:59.209Z,50.06
2018-08-04T10:28:29.512Z,50.64
2018-08-04T10:30:59.539Z,52.87
2018-08-04T10:33:29.596Z,53.27
2018-08-04T10:35:59.481Z,51.87
2018-08-04T10:38:29.518Z,51.93
2018-08-04T10:40:59.438Z,52.92
2018-08-04T10:43:29.872Z,52.19
2018-08-04T10:45:59.603Z,53.21
2018-08-04T10:48:29.308Z,52.91
2018-08-04T10:50:59.112Z,53.55
2018-08-04T10:53:29.076Z,52.49
2018-08-04T10:55:59.091Z,52.71
2018-08-04T10:58:28.981Z,52.49
2018-08-04T11:00:58.827Z,52.99
2018-08-04T11:03:29.151Z,53.87
2018-08-04T11:05:59.245Z,52.01
2018-08-04T11:08:28.967Z,52.17
2018-08-04T11:10:58.799Z,53.30
2018-08-04T11:13:28.901Z,54.99
2018-08-04T11:15:58.754Z,56.72
2018-08-04T11:18:28.838Z,56.51
2018-08-04T11:20:58.637Z,55.07
2018-08-04T11:23:28.441Z,55.30
2018-08-04T11:25:58.408Z,54.81
2018-08-04T11:28:28.395Z,56.30
2018-08-04T11:30:58.703Z,56.65
2018-08-04T11:33:28.543Z,56.30
2018-08-04T11:35:58.340Z,54.24
2018-08-04T11:38:28.116Z,54.24
2018-08-04T11:40:58.507Z,56.24
2018-08-04T11:43:28.684Z,56.84
2018-08-04T11:45:58.577Z,56.37
2018-08-04T11:48:28.469Z,58.30
2018-08-04T11:50:58.593Z,56.53
2018-08-04T11:53:28.802Z,53.36
2018-08-04T11:55:58.792Z,57.39
2018-08-04T11:58:28.632Z,56.57
2018-08-04T12:00:58.504Z,57.46
2018-08-04T12:03:28.476Z,56.14
2018-08-04T12:05:58.297Z,56.37
2018-08-04T12:08:28.018Z,56.76
2018-08-04T12:10:58.813Z,56.31
2018-08-04T12:13:28.741Z,58.47
2018-08-04T12:15:59.057Z,58.41
2018-08-04T12:18:29.046Z,61.34
2018-08-04T12:20:58.938Z,63.25
2018-08-04T12:23:28.728Z,61.98
2018-08-04T12:25:59.026Z,62.03
2018-08-04T12:28:29.824Z,63.73
2018-08-04T12:30:59.763Z,61.94
2018-08-04T12:33:29.640Z,62.92
2018-08-04T12:36:00.404Z,62.83
2018-08-04T12:38:30.240Z,63.86
2018-08-04T12:41:00.175Z,65.16
2018-08-04T12:43:30.000Z,66.25
2018-08-04T12:45:59.910Z,65.73
2018-08-04T12:48:30.331Z,65.02
2018-08-04T12:51:02.161Z,66.63
2018-08-04T12:53:32.190Z,67.10
2018-08-04T12:56:02.655Z,69.24
2018-08-04T12:58:32.351Z,69.56
2018-08-04T13:01:02.236Z,68.64
2018-08-04T13:03:32.071Z,69.32
2018-08-04T13:06:01.834Z,71.68
2018-08-04T13:08:32.004Z,74.36
2018-08-04T13:11:01.668Z,72.67
2018-08-04T13:13:31.788Z,71.80
2018-08-04T13:16:01.701Z,70.44
2018-08-04T13:18:31.423Z,69.79
2018-08-04T13:21:01.458Z,69.92
2018-08-04T13:23:31.267Z,69.33
2018-08-04T13:26:01.276Z,69.12
2018-08-04T13:28:31.074Z,70.95
2018-08-04T13:31:01.310Z,70.72
2018-08-04T13:33:30.980Z,70.11
2018-08-04T13:36:00.783Z,70.40
2018-08-04T13:38:30.663Z,67.90
2018-08-04T13:41:01.009Z,65.61
2018-08-04T13:43:31.515Z,62.58
2018-08-04T13:46:01.500Z,61.51
2018-08-04T13:48:31.368Z,61.04
2018-08-04T13:51:01.601Z,57.95
2018-08-04T13:53:31.471Z,56.79
2018-08-04T13:56:01.300Z,58.24
2018-08-04T13:58:31.016Z,57.34
2018-08-04T14:01:00.928Z,57.56
2018-08-04T14:03:30.678Z,57.01
2018-08-04T14:06:00.692Z,56.87
2018-08-04T14:08:30.427Z,57.28
2018-08-04T14:11:00.352Z,55.52
2018-08-04T14:13:30.156Z,54.63
2018-08-04T14:15:59.866Z,56.06
2018-08-04T14:18:30.291Z,57.12
2018-08-04T14:21:00.005Z,59.50
2018-08-04T14:23:30.056Z,54.72
2018-08-04T14:26:00.259Z,50.31
2018-08-04T14:28:30.136Z,49.23
2018-08-04T14:31:00.216Z,50.73
2018-08-04T14:33:30.201Z,52.09
2018-08-04T14:35:59.971Z,51.47
2018-08-04T14:38:29.840Z,52.74
2018-08-04T14:40:59.495Z,51.88
2018-08-04T14:43:29.286Z,50.84
2018-08-04T14:45:59.355Z,50.83
2018-08-04T14:48:29.112Z,53.03
2018-08-04T14:50:58.828Z,53.64
2018-08-04T14:53:28.669Z,53.61
2018-08-04T14:55:58.516Z,53.01
2018-08-04T14:58:28.341Z,55.96
2018-08-04T15:00:58.044Z,55.07
2018-08-04T15:03:28.248Z,53.64
2018-08-04T15:05:58.369Z,53.78
2018-08-04T15:08:28.536Z,53.35
2018-08-04T15:10:58.444Z,55.66
2018-08-04T15:13:28.480Z,55.85
2018-08-04T15:15:58.308Z,56.70
2018-08-04T15:18:28.210Z,53.37
2018-08-04T15:20:58.401Z,53.22
2018-08-04T15:23:28.310Z,53.78
2018-08-04T15:25:58.087Z,59.01
2018-08-04T15:28:27.804Z,54.35
2018-08-04T15:30:57.688Z,54.27
2018-08-04T15:33:27.463Z,56.79
2018-08-04T15:35:57.664Z,58.05
2018-08-04T15:38:27.540Z,56.82
2018-08-04T15:40:57.337Z,58.37
2018-08-04T15:43:27.776Z,60.85
2018-08-04T15:45:57.470Z,58.42
2018-08-04T15:48:27.484Z,56.53
2018-08-04T15:50:57.272Z,57.07
2018-08-04T15:53:26.964Z,56.70
2018-08-04T15:55:56.931Z,60.66
2018-08-04T15:58:26.640Z,59.18
2018-08-04T16:00:56.379Z,57.36
2018-08-04T16:03:26.332Z,57.73
2018-08-04T16:05:56.608Z,57.80
2018-08-04T16:08:26.316Z,56.74
2018-08-04T16:10:56.155Z,56.59
2018-08-04T16:13:25.872Z,55.99
2018-08-04T16:15:55.780Z,59.68
2018-08-04T16:18:25.583Z,62.77
2018-08-04T16:20:55.264Z,63.53
2018-08-04T16:23:25.429Z,68.09
2018-08-04T16:25:55.343Z,64.95
2018-08-04T16:28:25.359Z,65.54
2018-08-04T16:30:55.179Z,66.73
2018-08-04T16:33:24.957Z,66.27
2018-08-04T16:35:55.397Z,70.12
2018-08-04T16:38:25.156Z,70.48
2018-08-04T16:40:54.851Z,73.54
2018-08-04T16:43:24.761Z,74.31
2018-08-04T16:45:54.492Z,77.34
2018-08-04T16:48:24.286Z,81.77
2018-08-04T16:50:54.332Z,80.83
2018-08-04T16:53:24.493Z,79.88
2018-08-04T16:55:54.291Z,78.99
2018-08-04T16:58:23.991Z,77.63
2018-08-04T17:00:53.889Z,80.28
2018-08-04T17:03:23.951Z,82.14
2018-08-04T17:05:54.013Z,80.84
2018-08-04T17:08:24.062Z,79.91
2018-08-04T17:10:54.428Z,83.11
2018-08-04T17:13:24.513Z,83.69
2018-08-04T17:15:54.312Z,87.45
2018-08-04T17:18:24.950Z,88.85
2018-08-04T17:20:54.692Z,88.32
2018-08-04T17:23:24.548Z,88.99
2018-08-04T17:25:55.418Z,89.56
2018-08-04T17:28:25.812Z,90.47
2018-08-04T17:30:55.651Z,92.12
2018-08-04T17:33:25.845Z,91.90
2018-08-04T17:35:55.611Z,91.18
2018-08-04T17:38:25.303Z,91.67
2018-08-04T17:40:55.408Z,92.26
2018-08-04T17:43:25.533Z,94.14
2018-08-04T17:45:55.300Z,94.32
2018-08-04T17:48:25.573Z,93.00
2018-08-04T17:50:55.320Z,93.20
2018-08-04T17:53:25.092Z,91.60
2018-08-04T17:55:54.936Z,91.79
2018-08-04T17:58:24.648Z,90.98
2018-08-04T18:00:54.798Z,90.92
2018-08-04T18:03:24.529Z,90.88
2018-08-04T18:05:54.587Z,91.11
2018-08-04T18:08:24.295Z,92.28
2018-08-04T18:10:54.150Z,91.08
2018-08-04T18:13:23.857Z,93.52
2018-08-04T18:15:53.693Z,92.62
2018-08-04T18:18:23.902Z,94.00
2018-08-04T18:20:53.888Z,95.00
2018-08-04T18:23:23.896Z,92.19
2018-08-04T18:25:53.915Z,92.64
2018-08-04T18:28:23.784Z,92.28
2018-08-04T18:30:53.641Z,90.14
2018-08-04T18:33:23.714Z,88.36
2018-08-04T18:35:53.768Z,87.45
2018-08-04T18:38:23.687Z,88.44
2018-08-04T18:40:54.061Z,86.19
2018-08-04T18:43:23.932Z,87.36
2018-08-04T18:45:53.780Z,89.42
2018-08-04T18:48:23.696Z,89.96
2018-08-04T18:50:54.057Z,89.54
2018-08-04T18:53:23.835Z,89.48
2018-08-04T18:55:53.657Z,90.56
2018-08-04T18:58:23.512Z,89.79
2018-08-04T19:00:53.736Z,88.86
2018-08-04T19:03:23.489Z,91.12
2018-08-04T19:05:53.210Z,92.85
2018-08-04T19:08:22.931Z,94.17
2018-08-04T19:10:52.641Z,94.25
2018-08-04T19:13:22.796Z,94.69
2018-08-04T19:15:52.508Z,94.20
2018-08-04T19:18:22.236Z,92.99
2018-08-04T19:20:51.964Z,95.46
2018-08-04T19:23:21.794Z,96.99
2018-08-04T19:25:51.924Z,96.98
2018-08-04T19:28:22.014Z,98.07
2018-08-04T19:30:51.869Z,96.99
2018-08-04T19:33:22.025Z,98.47
2018-08-04T19:35:51.948Z,98.08
2018-08-04T19:38:21.796Z,100.00
2018-08-04T19:40:52.024Z,99.47
2018-08-04T19:43:22.015Z,99.21
2018-08-04T19:45:51.729Z,99.75
2018-08-04T19:48:21.836Z,99.26
2018-08-04T19:50:51.724Z,99.55
2018-08-04T19:53:21.519Z,100.00
2018-08-04T19:55:51.739Z,100.00
2018-08-04T19:58:21.581Z,99.39
2018-08-04T20:00:52.017Z,99.99
2018-08-04T20:03:21.855Z,100.00
2018-08-04T20:05:51.575Z,100.00
2018-08-04T20:08:21.506Z,100.00
2018-08-04T20:10:51.369Z,100.00
2018-08-04T20:13:21.219Z,100.00
2018-08-04T20:15:51.124Z,100.00
2018-08-04T20:18:21.010Z,100.00
2018-08-04T20:20:50.816Z,100.00
2018-08-04T20:23:21.057Z,100.00
2018-08-04T20:25:51.223Z,100.00
2018-08-04T20:28:21.468Z,100.00
2018-08-04T20:30:51.291Z,100.00
2018-08-04T20:33:21.251Z,100.00
2018-08-04T20:35:51.515Z,100.00
2018-08-04T20:38:21.640Z,100.00
2018-08-04T20:40:51.672Z,100.00
2018-08-04T20:43:21.788Z,100.00
2018-08-04T20:45:51.519Z,100.00
2018-08-04T20:48:21.307Z,100.00
2018-08-04T20:50:51.288Z,100.00
2018-08-04T20:53:21.412Z,100.00
2018-08-04T20:55:51.479Z,100.00
2018-08-04T20:58:21.379Z,100.00
2018-08-04T21:01:02.107Z,100.00
2018-08-04T21:03:31.992Z,100.00
2018-08-04T21:06:01.775Z,100.00
2018-08-04T21:08:31.616Z,100.00
2018-08-04T21:11:01.448Z,100.00
2018-08-04T21:16:11.608Z,100.00
2018-08-04T21:18:41.328Z,100.00
2018-08-04T21:21:11.540Z,100.00
2018-08-04T21:23:41.247Z,100.00
2018-08-04T21:26:11.036Z,100.00
2018-08-04T21:28:40.747Z,100.00
2018-08-04T21:31:10.692Z,100.00
2018-08-04T21:33:41.125Z,100.00
2018-08-04T21:36:10.856Z,100.00
2018-08-04T21:38:40.651Z,100.00
2018-08-04T21:41:10.723Z,100.00
2018-08-04T21:43:40.552Z,100.00
2018-08-04T21:46:10.512Z,100.00
2018-08-04T21:48:40.876Z,100.00
2018-08-04T21:51:10.773Z,100.00
2018-08-04T21:53:41.641Z,100.00
2018-08-04T21:58:46.997Z,100.00
2018-08-04T22:01:17.760Z,100.00
2018-08-04T22:03:48.021Z,100.00
2018-08-04T22:06:18.547Z,100.00
2018-08-04T22:09:00.211Z,100.00
2018-08-04T22:11:29.924Z,100.00
2018-08-04T22:13:59.753Z,100.00
2018-08-04T22:16:29.665Z,100.00
2018-08-04T22:18:59.795Z,100.00
2018-08-04T22:21:29.640Z,100.00
2018-08-04T22:23:59.456Z,100.00
2018-08-04T22:26:29.444Z,100.00
2018-08-04T22:28:59.256Z,100.00
2018-08-04T22:31:29.132Z,100.00
2018-08-04T22:33:59.115Z,100.00
2018-08-04T22:36:28.923Z,100.00
2018-08-04T22:38:58.808Z,100.00
2018-08-04T22:41:28.768Z,100.00
2018-08-04T22:43:58.519Z,100.00
2018-08-04T22:46:28.512Z,100.00
2018-08-04T22:48:58.288Z,100.00
2018-08-04T22:51:29.769Z,100.00
2018-08-04T22:53:59.896Z,100.00
2018-08-04T22:56:29.716Z,100.00
2018-08-04T22:58:59.792Z,100.00
2018-08-04T23:01:29.848Z,100.00
2018-08-04T23:03:59.662Z,100.00
2018-08-04T23:06:29.595Z,100.00
2018-08-04T23:08:59.479Z,100.00
2018-08-04T23:11:29.231Z,100.00
2018-08-04T23:13:59.257Z,100.00
2018-08-04T23:16:29.108Z,100.00
2018-08-04T23:18:58.946Z,100.00
2018-08-04T23:21:28.935Z,100.00
2018-08-04T23:23:58.749Z,100.00
2018-08-04T23:26:28.995Z,100.00
2018-08-04T23:28:59.335Z,100.00
2018-08-04T23:31:29.489Z,100.00
2018-08-04T23:33:59.476Z,100.00
2018-08-04T23:36:29.507Z,100.00
2018-08-04T23:38:59.404Z,100.00
2018-08-04T23:41:29.516Z,100.00
2018-08-04T23:43:59.412Z,100.00
2018-08-04T23:46:29.245Z,100.00
2018-08-04T23:48:59.104Z,100.00
2018-08-04T23:51:28.844Z,100.00
2018-08-04T23:53:58.788Z,100.00
2018-08-04T23:56:28.632Z,100.00
2018-08-04T23:58:58.424Z,100.00
